UKLL/LWO METAR and TAF weather

Enter ICAO airport designator
Station Type Date Time Source
UKLL METAR 2018/12/12 12:00 UTC NOAA

UKLL 121200Z 30002MPS 9000 BKN037 00/M01 Q1016 R31/710350 NOSIG


Station Type Date Time Source
UKLL Decoded METAR 2018/12/12 12:00 UTC NOAA

L'Viv, Ukraine (UKLL) 49-49N 023-57E 323M
Dec 12, 2018 - 07:00 AM EST / 2018.12.12 1200 UTC
Wind: from the WNW (300 degrees) at 4 MPH (4 KT):0
Visibility: 5 mile(s):0
Sky conditions: mostly cloudy
Temperature: 32 F (0 C)
Dew Point: 30 F (-1 C)
Relative Humidity: 92%
Pressure (altimeter): 30.00 in. Hg (1016 hPa)
ob: UKLL 121200Z 30002MPS 9000 BKN037 00/M01 Q1016 R31/710350 NOSIG
cycle: 12

Station Type Date Time Source
UKLL TAF 2018/12/12 12:24 UTC NOAA

TAF UKLL 121109Z 1212/1312 32003MPS 9999 BKN020 TX00/1213Z TNM04/1305Z
FM121500 34004MPS 3000 -SN BR OVC007
TEMPO 1215/1309 0800 SHSN FZFG BKN003 BKN018CB
TEMPO 1309/1312 1400 -SHSN BR BKN004 BKN020CB


Example: see airport list